sensor_id;sensor_type;location;lat;lon;timestamp;temperature;humidity
8565;DHT22;4320;51.498;6.556;2023-05-28T00:02:21;16.70;1.00
8565;DHT22;4320;51.498;6.556;2023-05-28T00:04:47;16.70;1.00
8565;DHT22;4320;51.498;6.556;2023-05-28T00:07:12;16.70;1.00
8565;DHT22;4320;51.498;6.556;2023-05-28T00:09:38;16.80;1.00
8565;DHT22;4320;51.498;6.556;2023-05-28T00:12:06;16.80;1.00
8565;DHT22;4320;51.498;6.556;2023-05-28T00:14:33;16.80;1.00
8565;DHT22;4320;51.498;6.556;2023-05-28T00:16:59;16.70;1.00
8565;DHT22;4320;51.498;6.556;2023-05-28T00:19:24;16.70;1.00
8565;DHT22;4320;51.498;6.556;2023-05-28T00:21:50;16.60;1.00
8565;DHT22;4320;51.498;6.556;2023-05-28T00:24:16;16.60;1.00
8565;DHT22;4320;51.498;6.556;2023-05-28T00:26:41;16.50;1.00
8565;DHT22;4320;51.498;6.556;2023-05-28T00:29:07;16.40;1.00
8565;DHT22;4320;51.498;6.556;2023-05-28T00:31:32;16.30;1.00
8565;DHT22;4320;51.498;6.556;2023-05-28T00:33:58;16.20;1.00
8565;DHT22;4320;51.498;6.556;2023-05-28T00:36:23;16.20;1.00
8565;DHT22;4320;51.498;6.556;2023-05-28T00:38:49;16.10;1.00
8565;DHT22;4320;51.498;6.556;2023-05-28T00:41:22;16.00;1.00
8565;DHT22;4320;51.498;6.556;2023-05-28T00:43:48;16.20;1.00
8565;DHT22;4320;51.498;6.556;2023-05-28T00:46:17;16.20;1.00
8565;DHT22;4320;51.498;6.556;2023-05-28T00:48:44;16.20;1.00
8565;DHT22;4320;51.498;6.556;2023-05-28T00:51:12;16.30;1.00
8565;DHT22;4320;51.498;6.556;2023-05-28T00:53:38;16.20;1.00
8565;DHT22;4320;51.498;6.556;2023-05-28T00:56:05;16.30;1.00
8565;DHT22;4320;51.498;6.556;2023-05-28T00:58:32;16.20;1.00
8565;DHT22;4320;51.498;6.556;2023-05-28T01:01:00;16.20;1.00
8565;DHT22;4320;51.498;6.556;2023-05-28T01:03:26;16.20;1.00
8565;DHT22;4320;51.498;6.556;2023-05-28T01:05:52;16.20;1.00
8565;DHT22;4320;51.498;6.556;2023-05-28T01:08:18;16.20;1.00
8565;DHT22;4320;51.498;6.556;2023-05-28T01:10:44;16.10;1.00
8565;DHT22;4320;51.498;6.556;2023-05-28T01:13:11;16.00;1.00
8565;DHT22;4320;51.498;6.556;2023-05-28T01:15:37;15.80;1.00
8565;DHT22;4320;51.498;6.556;2023-05-28T01:18:03;15.70;1.00
8565;DHT22;4320;51.498;6.556;2023-05-28T01:20:30;15.90;1.00
8565;DHT22;4320;51.498;6.556;2023-05-28T01:23:00;16.00;1.00
8565;DHT22;4320;51.498;6.556;2023-05-28T01:25:27;16.00;1.00
8565;DHT22;4320;51.498;6.556;2023-05-28T01:27:53;15.90;1.00
8565;DHT22;4320;51.498;6.556;2023-05-28T01:30:19;15.80;1.00
8565;DHT22;4320;51.498;6.556;2023-05-28T01:32:45;15.80;1.00
8565;DHT22;4320;51.498;6.556;2023-05-28T01:35:11;15.70;1.00
8565;DHT22;4320;51.498;6.556;2023-05-28T01:37:50;15.80;1.00
8565;DHT22;4320;51.498;6.556;2023-05-28T01:40:17;15.90;1.00
8565;DHT22;4320;51.498;6.556;2023-05-28T01:42:44;15.90;1.00
8565;DHT22;4320;51.498;6.556;2023-05-28T01:45:11;16.00;1.00
8565;DHT22;4320;51.498;6.556;2023-05-28T01:47:38;16.00;1.00
8565;DHT22;4320;51.498;6.556;2023-05-28T01:50:04;16.00;1.00
8565;DHT22;4320;51.498;6.556;2023-05-28T01:52:30;16.00;1.00
8565;DHT22;4320;51.498;6.556;2023-05-28T01:54:56;16.00;1.00
8565;DHT22;4320;51.498;6.556;2023-05-28T01:57:21;16.00;1.00
8565;DHT22;4320;51.498;6.556;2023-05-28T01:59:47;15.90;1.00
8565;DHT22;4320;51.498;6.556;2023-05-28T02:02:13;15.80;1.00
8565;DHT22;4320;51.498;6.556;2023-05-28T02:04:38;15.60;1.00
8565;DHT22;4320;51.498;6.556;2023-05-28T02:07:04;15.50;1.00
8565;DHT22;4320;51.498;6.556;2023-05-28T02:09:30;15.30;1.00
8565;DHT22;4320;51.498;6.556;2023-05-28T02:11:56;15.30;1.00
8565;DHT22;4320;51.498;6.556;2023-05-28T02:14:24;15.30;1.00
8565;DHT22;4320;51.498;6.556;2023-05-28T02:16:50;15.30;1.00
8565;DHT22;4320;51.498;6.556;2023-05-28T02:19:18;15.30;1.00
8565;DHT22;4320;51.498;6.556;2023-05-28T02:21:44;15.10;1.00
8565;DHT22;4320;51.498;6.556;2023-05-28T02:24:10;15.20;1.00
8565;DHT22;4320;51.498;6.556;2023-05-28T02:26:36;15.30;1.00
8565;DHT22;4320;51.498;6.556;2023-05-28T02:29:02;15.40;1.00
8565;DHT22;4320;51.498;6.556;2023-05-28T02:31:27;15.40;1.00
8565;DHT22;4320;51.498;6.556;2023-05-28T02:33:53;15.40;1.00
8565;DHT22;4320;51.498;6.556;2023-05-28T02:36:19;15.30;1.00
8565;DHT22;4320;51.498;6.556;2023-05-28T02:38:46;15.20;1.00
8565;DHT22;4320;51.498;6.556;2023-05-28T02:41:11;15.10;1.00
8565;DHT22;4320;51.498;6.556;2023-05-28T02:43:37;15.00;1.00
8565;DHT22;4320;51.498;6.556;2023-05-28T02:46:03;14.90;1.00
8565;DHT22;4320;51.498;6.556;2023-05-28T02:48:28;14.90;1.00
8565;DHT22;4320;51.498;6.556;2023-05-28T02:50:54;14.90;1.00
8565;DHT22;4320;51.498;6.556;2023-05-28T02:53:21;14.70;1.00
8565;DHT22;4320;51.498;6.556;2023-05-28T02:55:47;14.70;1.00
8565;DHT22;4320;51.498;6.556;2023-05-28T02:58:13;14.70;1.00
8565;DHT22;4320;51.498;6.556;2023-05-28T03:00:39;14.70;1.00
8565;DHT22;4320;51.498;6.556;2023-05-28T03:03:05;14.80;1.00
8565;DHT22;4320;51.498;6.556;2023-05-28T03:05:31;14.80;1.00
8565;DHT22;4320;51.498;6.556;2023-05-28T03:07:58;14.80;1.00
8565;DHT22;4320;51.498;6.556;2023-05-28T03:10:24;14.80;1.00
8565;DHT22;4320;51.498;6.556;2023-05-28T03:12:49;14.70;1.00
8565;DHT22;4320;51.498;6.556;2023-05-28T03:15:15;14.70;1.00
8565;DHT22;4320;51.498;6.556;2023-05-28T03:17:41;14.80;1.00
8565;DHT22;4320;51.498;6.556;2023-05-28T03:20:06;14.70;1.00
8565;DHT22;4320;51.498;6.556;2023-05-28T03:22:35;14.60;1.00
8565;DHT22;4320;51.498;6.556;2023-05-28T03:25:01;14.50;1.00
8565;DHT22;4320;51.498;6.556;2023-05-28T03:27:27;14.40;1.00
8565;DHT22;4320;51.498;6.556;2023-05-28T03:29:53;14.40;1.00
8565;DHT22;4320;51.498;6.556;2023-05-28T03:32:18;14.40;1.00
8565;DHT22;4320;51.498;6.556;2023-05-28T03:34:44;14.50;1.00
8565;DHT22;4320;51.498;6.556;2023-05-28T03:37:10;14.70;1.00
8565;DHT22;4320;51.498;6.556;2023-05-28T03:39:35;14.70;1.00
8565;DHT22;4320;51.498;6.556;2023-05-28T03:42:01;14.70;1.00
8565;DHT22;4320;51.498;6.556;2023-05-28T03:44:27;14.60;1.00
8565;DHT22;4320;51.498;6.556;2023-05-28T03:46:53;14.60;1.00
8565;DHT22;4320;51.498;6.556;2023-05-28T03:49:18;14.60;1.00
8565;DHT22;4320;51.498;6.556;2023-05-28T03:51:44;14.60;1.00
8565;DHT22;4320;51.498;6.556;2023-05-28T03:54:10;14.60;1.00
8565;DHT22;4320;51.498;6.556;2023-05-28T03:56:35;14.70;1.00
8565;DHT22;4320;51.498;6.556;2023-05-28T03:59:01;14.80;1.00
8565;DHT22;4320;51.498;6.556;2023-05-28T04:01:27;14.70;1.00
8565;DHT22;4320;51.498;6.556;2023-05-28T04:03:54;14.70;1.00
8565;DHT22;4320;51.498;6.556;2023-05-28T04:06:20;14.80;1.00
8565;DHT22;4320;51.498;6.556;2023-05-28T04:08:47;14.80;1.00
8565;DHT22;4320;51.498;6.556;2023-05-28T04:11:13;14.70;1.00
8565;DHT22;4320;51.498;6.556;2023-05-28T04:13:39;14.70;1.00
8565;DHT22;4320;51.498;6.556;2023-05-28T04:16:05;14.70;1.00
8565;DHT22;4320;51.498;6.556;2023-05-28T04:18:32;14.80;1.00
8565;DHT22;4320;51.498;6.556;2023-05-28T04:20:57;14.80;1.00
8565;DHT22;4320;51.498;6.556;2023-05-28T04:23:23;14.90;1.00
8565;DHT22;4320;51.498;6.556;2023-05-28T04:25:49;14.90;1.00
8565;DHT22;4320;51.498;6.556;2023-05-28T04:28:15;14.90;1.00
8565;DHT22;4320;51.498;6.556;2023-05-28T04:30:41;15.40;1.00
8565;DHT22;4320;51.498;6.556;2023-05-28T04:33:07;15.80;1.00
8565;DHT22;4320;51.498;6.556;2023-05-28T04:35:32;16.10;1.00
8565;DHT22;4320;51.498;6.556;2023-05-28T04:37:58;16.20;1.00
8565;DHT22;4320;51.498;6.556;2023-05-28T04:40:25;16.30;1.00
8565;DHT22;4320;51.498;6.556;2023-05-28T04:42:50;15.90;1.00
8565;DHT22;4320;51.498;6.556;2023-05-28T04:45:19;16.20;1.00
8565;DHT22;4320;51.498;6.556;2023-05-28T04:47:45;16.50;1.00
8565;DHT22;4320;51.498;6.556;2023-05-28T04:50:11;16.50;1.00
8565;DHT22;4320;51.498;6.556;2023-05-28T04:52:37;16.20;1.00
8565;DHT22;4320;51.498;6.556;2023-05-28T04:55:03;16.20;1.00
8565;DHT22;4320;51.498;6.556;2023-05-28T04:57:31;16.20;1.00
8565;DHT22;4320;51.498;6.556;2023-05-28T04:59:58;16.20;1.00
8565;DHT22;4320;51.498;6.556;2023-05-28T05:02:24;16.30;1.00
8565;DHT22;4320;51.498;6.556;2023-05-28T05:04:49;16.30;1.00
8565;DHT22;4320;51.498;6.556;2023-05-28T05:07:16;16.30;1.00
8565;DHT22;4320;51.498;6.556;2023-05-28T05:09:41;16.20;1.00
8565;DHT22;4320;51.498;6.556;2023-05-28T05:12:08;16.30;1.00
8565;DHT22;4320;51.498;6.556;2023-05-28T05:14:34;16.20;1.00
8565;DHT22;4320;51.498;6.556;2023-05-28T05:17:00;16.20;1.00
8565;DHT22;4320;51.498;6.556;2023-05-28T05:19:26;16.20;1.00
8565;DHT22;4320;51.498;6.556;2023-05-28T05:21:52;16.50;1.00
8565;DHT22;4320;51.498;6.556;2023-05-28T05:24:18;17.30;1.00
8565;DHT22;4320;51.498;6.556;2023-05-28T05:26:44;17.40;1.00
8565;DHT22;4320;51.498;6.556;2023-05-28T05:29:09;17.30;1.00
8565;DHT22;4320;51.498;6.556;2023-05-28T05:31:38;17.00;1.00
8565;DHT22;4320;51.498;6.556;2023-05-28T05:34:03;16.70;1.00
8565;DHT22;4320;51.498;6.556;2023-05-28T05:36:29;16.80;1.00
8565;DHT22;4320;51.498;6.556;2023-05-28T05:38:56;17.10;1.00
8565;DHT22;4320;51.498;6.556;2023-05-28T05:41:21;17.10;1.00
8565;DHT22;4320;51.498;6.556;2023-05-28T05:43:47;17.10;1.00
8565;DHT22;4320;51.498;6.556;2023-05-28T05:46:13;17.10;1.00
8565;DHT22;4320;51.498;6.556;2023-05-28T05:48:39;17.20;1.00
8565;DHT22;4320;51.498;6.556;2023-05-28T05:51:04;17.30;1.00
8565;DHT22;4320;51.498;6.556;2023-05-28T05:53:31;17.40;1.00
8565;DHT22;4320;51.498;6.556;2023-05-28T05:55:57;17.50;1.00
8565;DHT22;4320;51.498;6.556;2023-05-28T05:58:22;17.70;1.00
8565;DHT22;4320;51.498;6.556;2023-05-28T06:00:48;17.70;1.00
8565;DHT22;4320;51.498;6.556;2023-05-28T06:03:14;17.50;1.00
8565;DHT22;4320;51.498;6.556;2023-05-28T06:05:39;17.30;1.00
8565;DHT22;4320;51.498;6.556;2023-05-28T06:08:05;17.20;1.00
8565;DHT22;4320;51.498;6.556;2023-05-28T06:10:31;17.20;1.00
8565;DHT22;4320;51.498;6.556;2023-05-28T06:12:57;17.30;1.00
8565;DHT22;4320;51.498;6.556;2023-05-28T06:15:27;17.10;1.00
8565;DHT22;4320;51.498;6.556;2023-05-28T06:17:52;17.20;1.00
8565;DHT22;4320;51.498;6.556;2023-05-28T06:20:18;17.30;1.00
8565;DHT22;4320;51.498;6.556;2023-05-28T06:22:45;17.60;1.00
8565;DHT22;4320;51.498;6.556;2023-05-28T06:25:11;17.50;1.00
8565;DHT22;4320;51.498;6.556;2023-05-28T06:27:37;17.30;1.00
8565;DHT22;4320;51.498;6.556;2023-05-28T06:30:03;16.90;1.00
8565;DHT22;4320;51.498;6.556;2023-05-28T06:32:30;17.00;1.00
8565;DHT22;4320;51.498;6.556;2023-05-28T06:34:56;17.20;1.00
8565;DHT22;4320;51.498;6.556;2023-05-28T06:37:22;17.50;1.00
8565;DHT22;4320;51.498;6.556;2023-05-28T06:39:48;17.80;1.00
8565;DHT22;4320;51.498;6.556;2023-05-28T06:42:13;18.00;1.00
8565;DHT22;4320;51.498;6.556;2023-05-28T06:44:39;18.20;1.00
8565;DHT22;4320;51.498;6.556;2023-05-28T06:47:05;18.40;1.00
8565;DHT22;4320;51.498;6.556;2023-05-28T06:49:31;18.70;1.00
8565;DHT22;4320;51.498;6.556;2023-05-28T06:51:57;19.10;1.00
8565;DHT22;4320;51.498;6.556;2023-05-28T06:54:22;19.10;1.00
8565;DHT22;4320;51.498;6.556;2023-05-28T06:56:48;19.20;1.00
8565;DHT22;4320;51.498;6.556;2023-05-28T06:59:14;19.10;1.00
8565;DHT22;4320;51.498;6.556;2023-05-28T07:01:39;19.10;1.00
8565;DHT22;4320;51.498;6.556;2023-05-28T07:04:05;19.30;1.00
8565;DHT22;4320;51.498;6.556;2023-05-28T07:06:31;19.10;1.00
8565;DHT22;4320;51.498;6.556;2023-05-28T07:08:57;19.10;1.00
8565;DHT22;4320;51.498;6.556;2023-05-28T07:11:23;19.00;1.00
8565;DHT22;4320;51.498;6.556;2023-05-28T07:13:48;19.10;1.00
8565;DHT22;4320;51.498;6.556;2023-05-28T07:16:14;19.00;1.00
8565;DHT22;4320;51.498;6.556;2023-05-28T07:18:40;19.10;1.00
8565;DHT22;4320;51.498;6.556;2023-05-28T07:21:05;19.10;1.00
8565;DHT22;4320;51.498;6.556;2023-05-28T07:23:31;19.30;1.00
8565;DHT22;4320;51.498;6.556;2023-05-28T07:25:57;19.50;1.00
8565;DHT22;4320;51.498;6.556;2023-05-28T07:28:22;19.30;1.00
8565;DHT22;4320;51.498;6.556;2023-05-28T07:30:48;19.40;1.00
8565;DHT22;4320;51.498;6.556;2023-05-28T07:33:14;19.50;1.00
8565;DHT22;4320;51.498;6.556;2023-05-28T07:35:40;19.90;1.00
8565;DHT22;4320;51.498;6.556;2023-05-28T07:38:06;20.20;1.00
8565;DHT22;4320;51.498;6.556;2023-05-28T07:40:33;20.40;1.00
8565;DHT22;4320;51.498;6.556;2023-05-28T07:42:58;20.30;1.00
8565;DHT22;4320;51.498;6.556;2023-05-28T07:45:24;20.30;1.00
8565;DHT22;4320;51.498;6.556;2023-05-28T07:47:49;20.50;1.00
8565;DHT22;4320;51.498;6.556;2023-05-28T07:50:15;20.60;1.00
8565;DHT22;4320;51.498;6.556;2023-05-28T07:52:41;20.70;1.00
8565;DHT22;4320;51.498;6.556;2023-05-28T07:55:07;20.90;1.00
8565;DHT22;4320;51.498;6.556;2023-05-28T07:57:33;21.10;1.00
8565;DHT22;4320;51.498;6.556;2023-05-28T07:59:59;21.20;1.00
8565;DHT22;4320;51.498;6.556;2023-05-28T08:02:26;21.50;1.00
8565;DHT22;4320;51.498;6.556;2023-05-28T08:04:51;21.50;1.00
8565;DHT22;4320;51.498;6.556;2023-05-28T08:07:19;21.60;1.00
8565;DHT22;4320;51.498;6.556;2023-05-28T08:09:44;21.50;1.00
8565;DHT22;4320;51.498;6.556;2023-05-28T08:12:10;21.40;1.00
8565;DHT22;4320;51.498;6.556;2023-05-28T08:14:36;21.40;1.00
8565;DHT22;4320;51.498;6.556;2023-05-28T08:17:02;21.20;1.00
8565;DHT22;4320;51.498;6.556;2023-05-28T08:19:27;21.30;1.00
8565;DHT22;4320;51.498;6.556;2023-05-28T08:21:53;21.40;1.00
8565;DHT22;4320;51.498;6.556;2023-05-28T08:24:19;21.40;1.00
8565;DHT22;4320;51.498;6.556;2023-05-28T08:26:46;21.50;1.00
8565;DHT22;4320;51.498;6.556;2023-05-28T08:29:11;21.70;1.00
8565;DHT22;4320;51.498;6.556;2023-05-28T08:31:37;21.90;1.00
8565;DHT22;4320;51.498;6.556;2023-05-28T08:34:02;21.90;1.00
8565;DHT22;4320;51.498;6.556;2023-05-28T08:36:28;22.00;1.00
8565;DHT22;4320;51.498;6.556;2023-05-28T08:38:54;22.00;1.00
8565;DHT22;4320;51.498;6.556;2023-05-28T08:41:20;22.10;1.00
8565;DHT22;4320;51.498;6.556;2023-05-28T08:43:46;22.30;1.00
8565;DHT22;4320;51.498;6.556;2023-05-28T08:46:12;22.40;1.00
8565;DHT22;4320;51.498;6.556;2023-05-28T08:48:40;22.60;1.00
8565;DHT22;4320;51.498;6.556;2023-05-28T08:51:06;22.70;1.00
8565;DHT22;4320;51.498;6.556;2023-05-28T08:53:40;22.80;1.00
8565;DHT22;4320;51.498;6.556;2023-05-28T08:56:08;22.60;1.00
8565;DHT22;4320;51.498;6.556;2023-05-28T08:58:34;22.40;1.00
8565;DHT22;4320;51.498;6.556;2023-05-28T09:01:08;22.30;1.00
8565;DHT22;4320;51.498;6.556;2023-05-28T09:03:34;22.20;1.00
8565;DHT22;4320;51.498;6.556;2023-05-28T09:06:01;22.10;1.00
8565;DHT22;4320;51.498;6.556;2023-05-28T09:08:27;22.00;1.00
8565;DHT22;4320;51.498;6.556;2023-05-28T09:10:56;22.10;1.00
8565;DHT22;4320;51.498;6.556;2023-05-28T09:13:22;22.20;1.00
8565;DHT22;4320;51.498;6.556;2023-05-28T09:15:51;22.00;1.00
8565;DHT22;4320;51.498;6.556;2023-05-28T09:18:20;21.90;1.00
8565;DHT22;4320;51.498;6.556;2023-05-28T09:20:48;21.80;1.00
8565;DHT22;4320;51.498;6.556;2023-05-28T09:23:16;21.70;1.00
8565;DHT22;4320;51.498;6.556;2023-05-28T09:25:42;21.80;1.00
8565;DHT22;4320;51.498;6.556;2023-05-28T09:28:10;21.80;1.00
8565;DHT22;4320;51.498;6.556;2023-05-28T09:30:38;21.80;1.00
8565;DHT22;4320;51.498;6.556;2023-05-28T09:33:05;21.80;1.00
8565;DHT22;4320;51.498;6.556;2023-05-28T09:35:32;21.70;1.00
8565;DHT22;4320;51.498;6.556;2023-05-28T09:38:06;21.80;1.00
8565;DHT22;4320;51.498;6.556;2023-05-28T09:40:40;21.90;1.00
8565;DHT22;4320;51.498;6.556;2023-05-28T09:43:07;22.00;1.00
8565;DHT22;4320;51.498;6.556;2023-05-28T09:45:34;22.10;1.00
8565;DHT22;4320;51.498;6.556;2023-05-28T09:48:00;22.20;1.00
8565;DHT22;4320;51.498;6.556;2023-05-28T09:50:26;22.30;1.00
8565;DHT22;4320;51.498;6.556;2023-05-28T09:52:55;22.40;1.00
8565;DHT22;4320;51.498;6.556;2023-05-28T09:55:24;22.30;1.00
8565;DHT22;4320;51.498;6.556;2023-05-28T09:57:58;22.40;1.00
8565;DHT22;4320;51.498;6.556;2023-05-28T10:00:32;22.40;1.00
8565;DHT22;4320;51.498;6.556;2023-05-28T10:05:37;22.90;1.00
8565;DHT22;4320;51.498;6.556;2023-05-28T10:08:04;23.00;1.00
8565;DHT22;4320;51.498;6.556;2023-05-28T10:10:32;23.10;1.00
8565;DHT22;4320;51.498;6.556;2023-05-28T10:12:58;23.30;1.00
8565;DHT22;4320;51.498;6.556;2023-05-28T10:15:25;23.40;1.00
8565;DHT22;4320;51.498;6.556;2023-05-28T10:17:51;23.40;1.00
8565;DHT22;4320;51.498;6.556;2023-05-28T10:20:18;23.50;1.00
8565;DHT22;4320;51.498;6.556;2023-05-28T10:22:44;23.50;1.00
8565;DHT22;4320;51.498;6.556;2023-05-28T10:25:09;23.70;1.00
8565;DHT22;4320;51.498;6.556;2023-05-28T10:27:38;23.90;1.00
8565;DHT22;4320;51.498;6.556;2023-05-28T10:30:10;23.90;1.00
8565;DHT22;4320;51.498;6.556;2023-05-28T10:32:42;23.80;1.00
8565;DHT22;4320;51.498;6.556;2023-05-28T10:35:11;23.80;1.00
8565;DHT22;4320;51.498;6.556;2023-05-28T10:37:38;23.90;1.00
8565;DHT22;4320;51.498;6.556;2023-05-28T10:40:08;23.90;1.00
8565;DHT22;4320;51.498;6.556;2023-05-28T10:42:39;23.80;1.00
8565;DHT22;4320;51.498;6.556;2023-05-28T10:45:07;23.90;1.00
8565;DHT22;4320;51.498;6.556;2023-05-28T10:47:51;24.00;1.00
8565;DHT22;4320;51.498;6.556;2023-05-28T10:50:18;24.10;1.00
8565;DHT22;4320;51.498;6.556;2023-05-28T10:53:03;23.80;1.00
8565;DHT22;4320;51.498;6.556;2023-05-28T10:55:49;23.70;1.00
8565;DHT22;4320;51.498;6.556;2023-05-28T10:58:36;23.70;1.00
8565;DHT22;4320;51.498;6.556;2023-05-28T11:03:47;23.60;1.00
8565;DHT22;4320;51.498;6.556;2023-05-28T11:06:16;23.60;1.00
8565;DHT22;4320;51.498;6.556;2023-05-28T11:08:46;23.70;1.00
8565;DHT22;4320;51.498;6.556;2023-05-28T11:11:13;23.80;1.00
8565;DHT22;4320;51.498;6.556;2023-05-28T11:13:47;24.00;1.00
8565;DHT22;4320;51.498;6.556;2023-05-28T11:16:17;24.10;1.00
8565;DHT22;4320;51.498;6.556;2023-05-28T11:19:02;24.30;1.00
8565;DHT22;4320;51.498;6.556;2023-05-28T11:21:28;24.50;1.00
8565;DHT22;4320;51.498;6.556;2023-05-28T11:24:04;24.90;1.00
8565;DHT22;4320;51.498;6.556;2023-05-28T11:26:33;25.30;1.00
8565;DHT22;4320;51.498;6.556;2023-05-28T11:28:59;25.60;1.00
8565;DHT22;4320;51.498;6.556;2023-05-28T11:31:24;25.80;1.00
8565;DHT22;4320;51.498;6.556;2023-05-28T11:33:50;26.00;1.00
8565;DHT22;4320;51.498;6.556;2023-05-28T11:36:18;26.10;1.00
8565;DHT22;4320;51.498;6.556;2023-05-28T11:38:43;26.50;1.00
8565;DHT22;4320;51.498;6.556;2023-05-28T11:41:09;26.00;1.00
8565;DHT22;4320;51.498;6.556;2023-05-28T11:43:35;25.90;1.00
8565;DHT22;4320;51.498;6.556;2023-05-28T11:46:01;26.10;1.00
8565;DHT22;4320;51.498;6.556;2023-05-28T11:48:27;26.70;1.00
8565;DHT22;4320;51.498;6.556;2023-05-28T11:50:58;26.90;1.00
8565;DHT22;4320;51.498;6.556;2023-05-28T11:53:24;26.80;1.00
8565;DHT22;4320;51.498;6.556;2023-05-28T11:55:49;26.70;1.00
8565;DHT22;4320;51.498;6.556;2023-05-28T11:58:15;26.60;1.00
8565;DHT22;4320;51.498;6.556;2023-05-28T12:00:41;26.70;1.00
8565;DHT22;4320;51.498;6.556;2023-05-28T12:03:10;26.90;1.00
8565;DHT22;4320;51.498;6.556;2023-05-28T12:05:37;26.90;1.00
8565;DHT22;4320;51.498;6.556;2023-05-28T12:08:03;27.00;1.00
8565;DHT22;4320;51.498;6.556;2023-05-28T12:10:30;27.20;1.00
8565;DHT22;4320;51.498;6.556;2023-05-28T12:12:56;27.40;1.00
8565;DHT22;4320;51.498;6.556;2023-05-28T12:15:23;27.60;1.00
8565;DHT22;4320;51.498;6.556;2023-05-28T12:17:55;27.40;1.00
8565;DHT22;4320;51.498;6.556;2023-05-28T12:22:46;27.50;1.00
8565;DHT22;4320;51.498;6.556;2023-05-28T12:25:13;27.10;1.00
8565;DHT22;4320;51.498;6.556;2023-05-28T12:27:39;27.30;1.00
8565;DHT22;4320;51.498;6.556;2023-05-28T12:30:05;27.60;1.00
8565;DHT22;4320;51.498;6.556;2023-05-28T12:32:34;27.50;1.00
8565;DHT22;4320;51.498;6.556;2023-05-28T12:34:59;27.40;1.00
8565;DHT22;4320;51.498;6.556;2023-05-28T12:37:25;27.20;1.00
8565;DHT22;4320;51.498;6.556;2023-05-28T12:39:51;27.00;1.00
8565;DHT22;4320;51.498;6.556;2023-05-28T12:42:17;27.10;1.00
8565;DHT22;4320;51.498;6.556;2023-05-28T12:44:43;26.90;1.00
8565;DHT22;4320;51.498;6.556;2023-05-28T12:47:09;26.90;1.00
8565;DHT22;4320;51.498;6.556;2023-05-28T12:49:35;26.70;1.00
8565;DHT22;4320;51.498;6.556;2023-05-28T12:52:01;26.70;1.00
8565;DHT22;4320;51.498;6.556;2023-05-28T12:54:27;26.80;1.00
8565;DHT22;4320;51.498;6.556;2023-05-28T12:56:52;26.80;1.00
8565;DHT22;4320;51.498;6.556;2023-05-28T12:59:26;27.00;1.00
8565;DHT22;4320;51.498;6.556;2023-05-28T13:01:52;26.80;1.00
8565;DHT22;4320;51.498;6.556;2023-05-28T13:04:20;26.80;1.00
8565;DHT22;4320;51.498;6.556;2023-05-28T13:06:46;26.70;1.00
8565;DHT22;4320;51.498;6.556;2023-05-28T13:09:13;26.80;1.00
8565;DHT22;4320;51.498;6.556;2023-05-28T13:11:43;27.00;1.00
8565;DHT22;4320;51.498;6.556;2023-05-28T13:14:09;26.90;1.00
8565;DHT22;4320;51.498;6.556;2023-05-28T13:16:35;26.40;1.00
8565;DHT22;4320;51.498;6.556;2023-05-28T13:19:02;26.40;1.00
8565;DHT22;4320;51.498;6.556;2023-05-28T13:21:31;26.50;1.00
8565;DHT22;4320;51.498;6.556;2023-05-28T13:23:58;26.80;1.00
8565;DHT22;4320;51.498;6.556;2023-05-28T13:26:24;27.00;1.00
8565;DHT22;4320;51.498;6.556;2023-05-28T13:28:50;26.80;1.00
8565;DHT22;4320;51.498;6.556;2023-05-28T13:31:16;26.60;1.00
8565;DHT22;4320;51.498;6.556;2023-05-28T13:33:42;26.40;1.00
8565;DHT22;4320;51.498;6.556;2023-05-28T13:36:07;26.30;1.00
8565;DHT22;4320;51.498;6.556;2023-05-28T13:38:33;26.10;1.00
8565;DHT22;4320;51.498;6.556;2023-05-28T13:40:59;26.20;1.00
8565;DHT22;4320;51.498;6.556;2023-05-28T13:43:25;26.20;1.00
8565;DHT22;4320;51.498;6.556;2023-05-28T13:45:51;26.10;1.00
8565;DHT22;4320;51.498;6.556;2023-05-28T13:48:16;26.10;1.00
8565;DHT22;4320;51.498;6.556;2023-05-28T13:50:42;26.20;1.00
8565;DHT22;4320;51.498;6.556;2023-05-28T13:53:08;26.20;1.00
8565;DHT22;4320;51.498;6.556;2023-05-28T13:55:34;25.90;1.00
8565;DHT22;4320;51.498;6.556;2023-05-28T13:57:59;25.90;1.00
8565;DHT22;4320;51.498;6.556;2023-05-28T14:00:25;25.80;1.00
8565;DHT22;4320;51.498;6.556;2023-05-28T14:02:51;25.70;1.00
8565;DHT22;4320;51.498;6.556;2023-05-28T14:05:16;25.60;1.00
8565;DHT22;4320;51.498;6.556;2023-05-28T14:07:42;25.60;1.00
8565;DHT22;4320;51.498;6.556;2023-05-28T14:10:08;25.40;1.00
8565;DHT22;4320;51.498;6.556;2023-05-28T14:12:34;25.40;1.00
8565;DHT22;4320;51.498;6.556;2023-05-28T14:15:00;25.50;1.00
8565;DHT22;4320;51.498;6.556;2023-05-28T14:17:26;25.40;1.00
8565;DHT22;4320;51.498;6.556;2023-05-28T14:19:52;25.20;1.00
8565;DHT22;4320;51.498;6.556;2023-05-28T14:22:17;25.00;1.00
8565;DHT22;4320;51.498;6.556;2023-05-28T14:24:43;25.00;1.00
8565;DHT22;4320;51.498;6.556;2023-05-28T14:27:08;25.20;1.00
8565;DHT22;4320;51.498;6.556;2023-05-28T14:29:35;25.30;1.00
8565;DHT22;4320;51.498;6.556;2023-05-28T14:32:00;25.40;1.00
8565;DHT22;4320;51.498;6.556;2023-05-28T14:34:27;25.50;1.00
8565;DHT22;4320;51.498;6.556;2023-05-28T14:36:53;25.30;1.00
8565;DHT22;4320;51.498;6.556;2023-05-28T14:39:18;25.20;1.00
8565;DHT22;4320;51.498;6.556;2023-05-28T14:41:44;25.30;1.00
8565;DHT22;4320;51.498;6.556;2023-05-28T14:44:10;25.30;1.00
8565;DHT22;4320;51.498;6.556;2023-05-28T14:46:35;25.00;1.00
8565;DHT22;4320;51.498;6.556;2023-05-28T14:49:01;24.90;1.00
8565;DHT22;4320;51.498;6.556;2023-05-28T14:51:27;25.10;1.00
8565;DHT22;4320;51.498;6.556;2023-05-28T14:53:53;25.20;1.00
8565;DHT22;4320;51.498;6.556;2023-05-28T14:56:18;25.00;1.00
8565;DHT22;4320;51.498;6.556;2023-05-28T14:58:44;25.00;1.00
8565;DHT22;4320;51.498;6.556;2023-05-28T15:01:10;24.90;1.00
8565;DHT22;4320;51.498;6.556;2023-05-28T15:03:36;24.90;1.00
8565;DHT22;4320;51.498;6.556;2023-05-28T15:06:01;24.90;1.00
8565;DHT22;4320;51.498;6.556;2023-05-28T15:08:27;24.90;1.00
8565;DHT22;4320;51.498;6.556;2023-05-28T15:10:53;25.00;1.00
8565;DHT22;4320;51.498;6.556;2023-05-28T15:13:19;24.90;1.00
8565;DHT22;4320;51.498;6.556;2023-05-28T15:15:44;24.90;1.00
8565;DHT22;4320;51.498;6.556;2023-05-28T15:18:10;24.80;1.00
8565;DHT22;4320;51.498;6.556;2023-05-28T15:20:35;24.90;1.00
8565;DHT22;4320;51.498;6.556;2023-05-28T15:23:01;25.00;1.00
8565;DHT22;4320;51.498;6.556;2023-05-28T15:25:27;24.90;1.00
8565;DHT22;4320;51.498;6.556;2023-05-28T15:27:53;24.90;1.00
8565;DHT22;4320;51.498;6.556;2023-05-28T15:30:20;25.00;1.00
8565;DHT22;4320;51.498;6.556;2023-05-28T15:32:47;25.00;1.00
8565;DHT22;4320;51.498;6.556;2023-05-28T15:35:13;24.90;1.00
8565;DHT22;4320;51.498;6.556;2023-05-28T15:37:39;24.70;1.00
8565;DHT22;4320;51.498;6.556;2023-05-28T15:40:05;24.70;1.00
8565;DHT22;4320;51.498;6.556;2023-05-28T15:42:34;24.50;1.00
8565;DHT22;4320;51.498;6.556;2023-05-28T15:45:00;24.40;1.00
8565;DHT22;4320;51.498;6.556;2023-05-28T15:47:26;24.50;1.00
8565;DHT22;4320;51.498;6.556;2023-05-28T15:49:51;24.50;1.00
8565;DHT22;4320;51.498;6.556;2023-05-28T15:52:17;24.50;1.00
8565;DHT22;4320;51.498;6.556;2023-05-28T15:54:43;24.50;1.00
8565;DHT22;4320;51.498;6.556;2023-05-28T15:57:09;24.50;1.00
8565;DHT22;4320;51.498;6.556;2023-05-28T15:59:35;24.40;1.00
8565;DHT22;4320;51.498;6.556;2023-05-28T16:02:07;24.40;1.00
8565;DHT22;4320;51.498;6.556;2023-05-28T16:04:34;24.30;1.00
8565;DHT22;4320;51.498;6.556;2023-05-28T16:07:00;24.40;1.00
8565;DHT22;4320;51.498;6.556;2023-05-28T16:09:26;24.30;1.00
8565;DHT22;4320;51.498;6.556;2023-05-28T16:11:54;24.20;1.00
8565;DHT22;4320;51.498;6.556;2023-05-28T16:14:19;24.30;1.00
8565;DHT22;4320;51.498;6.556;2023-05-28T16:16:46;24.40;1.00
8565;DHT22;4320;51.498;6.556;2023-05-28T16:19:13;24.20;1.00
8565;DHT22;4320;51.498;6.556;2023-05-28T16:21:39;24.20;1.00